createdAt,value
2023-02-09T00:01:33.560Z,32.58
2023-02-09T00:03:39.432Z,32.59
2023-02-09T00:05:44.327Z,32.69
2023-02-09T00:07:49.072Z,32.83
2023-02-09T00:09:54.308Z,32.76
2023-02-09T00:12:22.598Z,32.92
2023-02-09T00:14:27.839Z,32.86
2023-02-09T00:16:32.524Z,32.98
2023-02-09T00:18:37.443Z,32.70
2023-02-09T00:20:42.298Z,33.04
2023-02-09T00:22:47.072Z,32.83
2023-02-09T00:24:51.724Z,32.89
2023-02-09T00:26:56.374Z,32.94
2023-02-09T00:29:03.962Z,32.92
2023-02-09T00:31:09.747Z,33.08
2023-02-09T00:33:17.954Z,33.12
2023-02-09T00:35:22.615Z,33.09
2023-02-09T00:37:27.346Z,33.13
2023-02-09T00:39:32.330Z,33.20
2023-02-09T00:41:49.498Z,33.19
2023-02-09T00:43:54.231Z,33.27
2023-02-09T00:46:02.513Z,33.37
2023-02-09T00:48:07.499Z,33.42
2023-02-09T00:50:12.998Z,33.40
2023-02-09T00:52:17.651Z,33.28
2023-02-09T00:54:22.591Z,33.46
2023-02-09T00:56:27.432Z,33.56
2023-02-09T00:58:32.135Z,33.63
2023-02-09T01:00:36.856Z,33.48
2023-02-09T01:02:44.548Z,33.25
2023-02-09T01:04:49.253Z,33.35
2023-02-09T01:06:53.986Z,33.24
2023-02-09T01:08:58.775Z,33.25
2023-02-09T01:11:03.660Z,33.30
2023-02-09T01:13:08.353Z,33.25
2023-02-09T01:15:14.203Z,33.41
2023-02-09T01:17:23.029Z,33.74
2023-02-09T01:19:30.330Z,33.36
2023-02-09T01:21:35.312Z,33.52
2023-02-09T01:23:40.127Z,33.38
2023-02-09T01:25:44.771Z,33.39
2023-02-09T01:27:49.498Z,33.45
2023-02-09T01:29:54.197Z,33.62
2023-02-09T01:31:59.190Z,33.52
2023-02-09T01:34:05.522Z,33.49
2023-02-09T01:36:13.687Z,33.59
2023-02-09T01:38:18.649Z,33.77
2023-02-09T01:40:23.335Z,33.75
2023-02-09T01:42:28.075Z,33.70
2023-02-09T01:45:10.481Z,33.75
2023-02-09T01:47:17.050Z,33.87
2023-02-09T01:49:26.353Z,34.06
2023-02-09T01:51:35.815Z,33.92
2023-02-09T01:53:40.540Z,33.98
2023-02-09T01:55:59.178Z,33.77
2023-02-09T01:58:10.029Z,33.57
2023-02-09T02:00:18.939Z,33.62
2023-02-09T02:02:25.048Z,33.75
2023-02-09T02:04:30.948Z,33.68
2023-02-09T02:06:38.781Z,33.64
2023-02-09T02:08:50.369Z,33.61
2023-02-09T02:10:56.121Z,33.50
2023-02-09T02:13:01.351Z,33.69
2023-02-09T02:15:06.162Z,33.60
2023-02-09T02:17:22.812Z,33.53
2023-02-09T02:20:05.037Z,33.70
2023-02-09T02:22:47.088Z,33.92
2023-02-09T02:25:33.551Z,33.71
2023-02-09T02:27:46.429Z,33.75
2023-02-09T02:30:17.010Z,34.02
2023-02-09T02:32:36.502Z,34.14
2023-02-09T02:34:48.855Z,33.99
2023-02-09T02:37:03.119Z,34.16
2023-02-09T02:39:14.871Z,34.05
2023-02-09T02:41:29.564Z,34.19
2023-02-09T02:43:42.099Z,34.21
2023-02-09T02:45:51.118Z,34.06
2023-02-09T02:48:06.767Z,34.14
2023-02-09T02:50:16.444Z,34.29
2023-02-09T02:52:21.156Z,33.98
2023-02-09T02:54:31.362Z,34.36
2023-02-09T02:56:40.874Z,34.09
2023-02-09T02:58:48.384Z,34.10
2023-02-09T03:00:55.091Z,34.08
2023-02-09T03:03:06.706Z,34.03
2023-02-09T03:05:13.050Z,34.00
2023-02-09T03:07:20.602Z,34.00
2023-02-09T03:09:25.397Z,33.96
2023-02-09T03:11:37.294Z,33.87
2023-02-09T03:13:54.264Z,34.17
2023-02-09T03:16:10.010Z,33.97
2023-02-09T03:18:28.521Z,34.07
2023-02-09T03:20:40.897Z,33.83
2023-02-09T03:22:50.248Z,34.02
2023-02-09T03:25:00.372Z,34.25
2023-02-09T03:27:12.738Z,34.48
2023-02-09T03:29:19.733Z,34.34
2023-02-09T03:31:25.936Z,34.22
2023-02-09T03:33:36.297Z,34.47
2023-02-09T03:35:44.011Z,34.43
2023-02-09T03:37:48.774Z,34.51
2023-02-09T03:39:53.457Z,34.27
2023-02-09T03:41:58.202Z,34.38
2023-02-09T03:44:15.512Z,34.42
2023-02-09T03:46:20.214Z,34.50
2023-02-09T03:48:24.903Z,34.41
2023-02-09T03:50:32.345Z,34.62
2023-02-09T03:52:36.992Z,34.53
2023-02-09T03:54:42.186Z,34.61
2023-02-09T03:56:46.879Z,34.38
2023-02-09T03:58:51.663Z,34.54
2023-02-09T04:00:56.420Z,34.72
2023-02-09T04:03:01.074Z,34.51
2023-02-09T04:05:06.101Z,34.37
2023-02-09T04:07:14.025Z,34.36
2023-02-09T04:09:19.080Z,34.30
2023-02-09T04:11:23.745Z,34.35
2023-02-09T04:13:28.942Z,34.41
2023-02-09T04:15:33.635Z,34.21
2023-02-09T04:17:38.267Z,34.28
2023-02-09T04:19:42.971Z,34.33
2023-02-09T04:21:47.631Z,34.17
2023-02-09T04:23:55.524Z,34.36
2023-02-09T04:26:00.187Z,34.33
2023-02-09T04:28:04.991Z,34.49
2023-02-09T04:30:11.365Z,34.50
2023-02-09T04:32:16.228Z,34.44
2023-02-09T04:34:22.982Z,34.72
2023-02-09T04:36:27.722Z,34.58
2023-02-09T04:38:32.573Z,34.62
2023-02-09T04:40:42.226Z,34.63
2023-02-09T04:42:47.945Z,34.59
2023-02-09T04:44:52.894Z,34.51
2023-02-09T04:46:57.620Z,34.51
2023-02-09T04:49:02.796Z,34.63
2023-02-09T04:51:07.850Z,34.56
2023-02-09T04:53:13.056Z,34.79
2023-02-09T04:55:18.050Z,34.96
2023-02-09T04:57:37.850Z,35.01
2023-02-09T04:59:44.969Z,35.17
2023-02-09T05:01:49.608Z,35.16
2023-02-09T05:03:54.854Z,35.12
2023-02-09T05:06:01.464Z,35.05
2023-02-09T05:08:06.140Z,35.05
2023-02-09T05:10:11.337Z,35.18
2023-02-09T05:12:15.991Z,35.07
2023-02-09T05:14:23.329Z,34.95
2023-02-09T05:16:28.039Z,35.02
2023-02-09T05:18:35.546Z,34.94
2023-02-09T05:20:40.794Z,34.97
2023-02-09T05:22:45.583Z,34.90
2023-02-09T05:24:50.390Z,34.87
2023-02-09T05:26:55.058Z,34.98
2023-02-09T05:28:59.699Z,34.76
2023-02-09T05:31:07.242Z,34.81
2023-02-09T05:33:12.056Z,34.70
2023-02-09T05:35:16.718Z,34.95
2023-02-09T05:37:21.382Z,34.90
2023-02-09T05:39:26.430Z,34.95
2023-02-09T05:41:43.580Z,34.68
2023-02-09T05:43:48.228Z,34.96
2023-02-09T05:45:52.872Z,34.85
2023-02-09T05:48:00.206Z,34.70
2023-02-09T05:50:05.221Z,34.61
2023-02-09T05:52:11.186Z,34.62
2023-02-09T05:54:15.840Z,35.03
2023-02-09T05:56:21.128Z,34.77
2023-02-09T05:58:25.774Z,34.89
2023-02-09T06:00:30.688Z,34.83
2023-02-09T06:02:35.439Z,34.85
2023-02-09T06:04:42.976Z,34.76
2023-02-09T06:06:47.675Z,34.76
2023-02-09T06:08:52.410Z,34.70
2023-02-09T06:10:57.065Z,34.91
2023-02-09T06:13:01.835Z,34.75
2023-02-09T06:15:07.842Z,34.95
2023-02-09T06:17:12.546Z,34.88
2023-02-09T06:19:18.684Z,34.99
2023-02-09T06:21:26.177Z,34.78
2023-02-09T06:23:30.794Z,34.94
2023-02-09T06:25:35.443Z,34.78
2023-02-09T06:27:40.135Z,34.77
2023-02-09T06:29:45.045Z,34.83
2023-02-09T06:31:49.818Z,34.74
2023-02-09T06:33:54.623Z,34.63
2023-02-09T06:35:59.344Z,34.78
2023-02-09T06:38:06.701Z,34.78
2023-02-09T06:40:12.128Z,34.63
2023-02-09T06:42:16.867Z,34.77
2023-02-09T06:44:21.568Z,34.95
2023-02-09T06:46:26.379Z,34.99
2023-02-09T06:48:31.001Z,34.92
2023-02-09T06:50:36.724Z,34.90
2023-02-09T06:52:41.890Z,35.32
2023-02-09T06:54:49.418Z,35.35
2023-02-09T06:56:54.086Z,35.05
2023-02-09T06:58:59.340Z,35.26
2023-02-09T07:01:07.725Z,35.29
2023-02-09T07:03:12.566Z,35.48
2023-02-09T07:05:18.354Z,35.31
2023-02-09T07:07:24.875Z,35.30
2023-02-09T07:09:30.130Z,35.23
2023-02-09T07:11:37.781Z,35.14
2023-02-09T07:13:42.787Z,35.15
2023-02-09T07:15:47.591Z,35.22
2023-02-09T07:17:52.498Z,35.14
2023-02-09T07:19:57.318Z,35.07
2023-02-09T07:22:01.994Z,35.26
2023-02-09T07:24:07.233Z,35.06
2023-02-09T07:26:16.017Z,35.24
2023-02-09T07:28:23.591Z,35.26
2023-02-09T07:30:28.484Z,35.15
2023-02-09T07:32:34.128Z,35.17
2023-02-09T07:34:38.966Z,35.18
2023-02-09T07:36:44.436Z,35.31
2023-02-09T07:38:50.214Z,35.41
2023-02-09T07:40:55.980Z,35.49
2023-02-09T07:43:00.596Z,35.38
2023-02-09T07:45:10.133Z,35.65
2023-02-09T07:47:14.848Z,35.68
2023-02-09T07:49:19.589Z,35.42
2023-02-09T07:51:26.673Z,35.72
2023-02-09T07:53:32.177Z,35.56
2023-02-09T07:55:36.947Z,35.98
2023-02-09T07:57:41.618Z,35.75
2023-02-09T07:59:48.118Z,35.89
2023-02-09T08:01:55.728Z,35.87
2023-02-09T08:04:00.658Z,35.99
2023-02-09T08:06:14.424Z,35.87
2023-02-09T08:08:19.163Z,35.71
2023-02-09T08:10:24.328Z,36.08
2023-02-09T08:12:45.095Z,36.06
2023-02-09T08:14:50.901Z,35.93
2023-02-09T08:17:15.990Z,35.99
2023-02-09T08:19:25.648Z,36.08
2023-02-09T08:21:33.258Z,36.00
2023-02-09T08:23:40.475Z,35.98
2023-02-09T08:25:45.623Z,36.04
2023-02-09T08:27:51.028Z,36.05
2023-02-09T08:29:55.892Z,36.23
2023-02-09T08:32:03.643Z,36.27
2023-02-09T08:34:08.731Z,36.00
2023-02-09T08:36:14.986Z,36.23
2023-02-09T08:38:19.929Z,36.28
2023-02-09T08:40:24.775Z,36.29
2023-02-09T08:42:29.794Z,36.73
2023-02-09T08:44:34.885Z,36.76
2023-02-09T08:46:39.867Z,36.84
2023-02-09T08:48:49.010Z,36.93
2023-02-09T08:50:54.173Z,36.99
2023-02-09T08:52:59.621Z,36.90
2023-02-09T08:55:04.308Z,36.72
2023-02-09T08:57:09.622Z,36.75
2023-02-09T08:59:15.381Z,36.90
2023-02-09T09:01:21.297Z,36.85
2023-02-09T09:03:28.475Z,36.61
2023-02-09T09:05:38.471Z,36.90
2023-02-09T09:07:43.581Z,36.63
2023-02-09T09:09:48.762Z,36.85
2023-02-09T09:11:53.435Z,36.74
2023-02-09T09:13:58.846Z,36.69
2023-02-09T09:16:05.209Z,36.88
2023-02-09T09:18:10.251Z,36.93
2023-02-09T09:20:15.472Z,36.89
2023-02-09T09:22:22.939Z,37.07
2023-02-09T09:24:28.517Z,36.82
2023-02-09T09:26:33.669Z,36.95
2023-02-09T09:28:39.194Z,37.14
2023-02-09T09:30:44.604Z,37.09
2023-02-09T09:32:52.058Z,36.90
2023-02-09T09:34:58.412Z,36.85
2023-02-09T09:37:03.676Z,37.04
2023-02-09T09:39:11.019Z,37.07
2023-02-09T09:41:27.644Z,36.84
2023-02-09T09:43:37.965Z,36.95
2023-02-09T09:45:43.025Z,36.92
2023-02-09T09:47:48.167Z,36.84
2023-02-09T09:49:53.243Z,36.81
2023-02-09T09:52:05.346Z,37.04
2023-02-09T09:54:18.453Z,36.96
2023-02-09T09:56:27.054Z,36.67
2023-02-09T09:58:34.473Z,36.71
2023-02-09T10:00:43.428Z,36.44
2023-02-09T10:02:48.843Z,36.68
2023-02-09T10:04:53.572Z,36.55
2023-02-09T10:07:04.698Z,36.67
2023-02-09T10:09:21.624Z,36.52
2023-02-09T10:11:31.800Z,36.51
2023-02-09T10:13:39.907Z,36.30
2023-02-09T10:15:49.096Z,36.33
2023-02-09T10:17:54.101Z,36.33
2023-02-09T10:20:06.941Z,36.30
2023-02-09T10:22:15.336Z,36.26
2023-02-09T10:24:27.764Z,36.15
2023-02-09T10:26:34.551Z,36.13
2023-02-09T10:28:44.111Z,36.07
2023-02-09T10:30:50.613Z,35.99
2023-02-09T10:32:55.888Z,35.69
2023-02-09T10:35:04.620Z,36.09
2023-02-09T10:37:20.045Z,36.05
2023-02-09T10:39:30.861Z,36.04
2023-02-09T10:41:37.976Z,35.84
2023-02-09T10:43:42.916Z,35.81
2023-02-09T10:45:49.686Z,35.64
2023-02-09T10:48:01.578Z,35.58
2023-02-09T10:50:18.116Z,35.53
2023-02-09T10:52:26.183Z,35.37
2023-02-09T10:54:34.405Z,35.47
2023-02-09T10:56:48.462Z,35.42
2023-02-09T10:58:54.960Z,35.45
2023-02-09T11:01:15.264Z,35.08
2023-02-09T11:03:21.866Z,35.00
2023-02-09T11:05:36.290Z,35.29
2023-02-09T11:07:45.262Z,34.98
2023-02-09T11:09:54.886Z,35.20
2023-02-09T11:11:59.571Z,35.26
2023-02-09T11:14:05.230Z,35.33
2023-02-09T11:16:28.706Z,35.09
2023-02-09T11:18:37.131Z,35.13
2023-02-09T11:20:44.792Z,35.11
2023-02-09T11:23:20.957Z,35.04
2023-02-09T11:25:31.458Z,34.92
2023-02-09T11:27:50.681Z,35.05
2023-02-09T11:30:06.273Z,34.78
2023-02-09T11:32:19.959Z,34.91
2023-02-09T11:34:44.926Z,35.01
2023-02-09T11:37:01.219Z,34.93
2023-02-09T11:39:13.010Z,34.73
2023-02-09T11:41:43.080Z,34.64
2023-02-09T11:43:51.450Z,34.81
2023-02-09T11:45:59.794Z,34.60
2023-02-09T11:48:09.604Z,34.67
2023-02-09T11:50:24.610Z,34.63
2023-02-09T11:52:37.035Z,34.51
2023-02-09T11:54:42.036Z,34.68
2023-02-09T11:56:52.796Z,34.46
2023-02-09T11:59:03.559Z,34.50
2023-02-09T12:01:16.514Z,34.31
2023-02-09T12:03:21.523Z,34.36
2023-02-09T12:05:27.006Z,34.48
2023-02-09T12:07:38.253Z,34.31
2023-02-09T12:09:51.742Z,34.41
2023-02-09T12:12:07.757Z,34.13
2023-02-09T12:14:26.194Z,34.41
2023-02-09T12:16:36.442Z,34.04
2023-02-09T12:18:44.059Z,34.20
2023-02-09T12:20:55.844Z,34.02
2023-02-09T12:23:07.983Z,34.10
2023-02-09T12:25:34.779Z,33.91
2023-02-09T12:27:44.248Z,33.86
2023-02-09T12:29:48.869Z,33.83
2023-02-09T12:32:30.817Z,33.72
2023-02-09T12:34:43.103Z,33.90
2023-02-09T12:37:28.470Z,34.03
2023-02-09T12:39:33.959Z,33.96
2023-02-09T12:42:14.412Z,33.90
2023-02-09T12:44:56.084Z,33.70
2023-02-09T12:47:00.940Z,33.87
2023-02-09T12:49:20.777Z,33.51
2023-02-09T12:51:43.760Z,33.40
2023-02-09T12:53:49.586Z,33.56
2023-02-09T12:56:05.998Z,33.23
2023-02-09T12:58:43.298Z,33.46
2023-02-09T13:01:07.135Z,33.07
2023-02-09T13:03:21.814Z,33.16
2023-02-09T13:05:29.643Z,33.16
2023-02-09T13:07:47.524Z,33.04
2023-02-09T13:09:54.342Z,33.25
2023-02-09T13:12:06.990Z,33.25
2023-02-09T13:14:14.709Z,32.91
2023-02-09T13:16:53.144Z,33.00
2023-02-09T13:19:05.567Z,33.07
2023-02-09T13:21:21.849Z,32.86
2023-02-09T13:23:36.115Z,32.90
2023-02-09T13:25:44.380Z,32.88
2023-02-09T13:27:52.285Z,32.81
2023-02-09T13:29:58.503Z,32.77
2023-02-09T13:32:20.496Z,32.43
2023-02-09T13:34:34.194Z,32.63
2023-02-09T13:36:47.464Z,32.50
2023-02-09T13:38:52.191Z,32.57
2023-02-09T13:40:58.276Z,32.18
2023-02-09T13:43:06.974Z,32.17
2023-02-09T13:45:19.680Z,31.92
2023-02-09T13:47:28.878Z,32.10
2023-02-09T13:49:33.645Z,31.85
2023-02-09T13:51:38.336Z,31.85
2023-02-09T13:53:43.922Z,32.02
2023-02-09T13:55:50.383Z,32.01
2023-02-09T13:58:00.466Z,31.54
2023-02-09T14:00:12.680Z,31.83
2023-02-09T14:02:28.795Z,31.58
2023-02-09T14:04:36.506Z,31.64
2023-02-09T14:06:46.683Z,31.65
2023-02-09T14:08:53.106Z,31.67
2023-02-09T14:11:03.002Z,31.45
2023-02-09T14:13:13.749Z,31.54
2023-02-09T14:15:31.253Z,31.65
2023-02-09T14:17:39.073Z,31.54
2023-02-09T14:19:50.825Z,31.57
2023-02-09T14:21:56.224Z,31.61
2023-02-09T14:24:17.685Z,31.42
2023-02-09T14:26:28.105Z,31.59
2023-02-09T14:28:32.980Z,31.57
2023-02-09T14:30:40.173Z,31.42
2023-02-09T14:32:48.486Z,31.34
2023-02-09T14:34:54.237Z,31.20
2023-02-09T14:37:01.842Z,31.53
2023-02-09T14:39:14.051Z,31.50
2023-02-09T14:41:33.321Z,31.43
2023-02-09T14:43:37.999Z,31.58
2023-02-09T14:45:45.357Z,31.15
2023-02-09T14:47:52.790Z,31.46
2023-02-09T14:49:59.198Z,31.54
2023-02-09T14:52:15.187Z,31.21
2023-02-09T14:54:32.229Z,31.61
2023-02-09T14:56:36.989Z,31.62
2023-02-09T14:58:41.666Z,31.46
2023-02-09T15:00:46.289Z,31.56
2023-02-09T15:02:55.074Z,31.49
2023-02-09T15:05:00.293Z,31.63
2023-02-09T15:07:06.097Z,31.63
2023-02-09T15:09:13.120Z,31.56
2023-02-09T15:11:34.545Z,31.55
2023-02-09T15:13:39.227Z,31.72
2023-02-09T15:15:44.477Z,31.88
2023-02-09T15:17:49.699Z,31.81
2023-02-09T15:19:58.057Z,31.74
2023-02-09T15:22:07.887Z,31.66
2023-02-09T15:24:12.864Z,31.57
2023-02-09T15:26:20.501Z,31.59
2023-02-09T15:28:28.743Z,31.75
2023-02-09T15:30:37.136Z,31.69
2023-02-09T15:32:42.097Z,31.84
2023-02-09T15:34:46.825Z,31.65
2023-02-09T15:36:54.149Z,31.77
2023-02-09T15:38:59.350Z,31.95
2023-02-09T15:41:16.547Z,31.75
2023-02-09T15:43:35.848Z,31.90
2023-02-09T15:45:53.339Z,31.74
2023-02-09T15:47:59.154Z,31.92
2023-02-09T15:50:03.942Z,32.10
2023-02-09T15:52:11.377Z,31.92
2023-02-09T15:54:20.716Z,31.99
2023-02-09T15:56:25.666Z,31.67
2023-02-09T15:58:36.022Z,31.64
2023-02-09T16:00:40.900Z,31.85
2023-02-09T16:02:45.656Z,31.69
2023-02-09T16:04:50.594Z,32.00
2023-02-09T16:06:56.958Z,31.91
2023-02-09T16:09:06.751Z,32.04
2023-02-09T16:11:19.705Z,31.94
2023-02-09T16:13:24.349Z,32.10
2023-02-09T16:15:29.882Z,31.92
2023-02-09T16:17:34.495Z,32.13
2023-02-09T16:19:39.878Z,32.09
2023-02-09T16:21:46.894Z,31.96
2023-02-09T16:23:51.715Z,32.01
2023-02-09T16:26:01.608Z,32.18
2023-02-09T16:28:06.794Z,31.94
2023-02-09T16:30:18.782Z,32.10
2023-02-09T16:32:25.822Z,32.17
2023-02-09T16:34:30.569Z,31.89
2023-02-09T16:36:37.015Z,32.19
2023-02-09T16:38:41.666Z,32.07
2023-02-09T16:40:46.742Z,31.97
2023-02-09T16:42:54.352Z,32.15
2023-02-09T16:45:00.232Z,32.20
2023-02-09T16:47:05.126Z,32.04
2023-02-09T16:49:09.985Z,32.26
2023-02-09T16:51:15.917Z,32.14
2023-02-09T16:53:29.905Z,32.17
2023-02-09T16:55:36.647Z,32.37
2023-02-09T16:57:41.392Z,32.52
2023-02-09T16:59:49.175Z,32.50
2023-02-09T17:01:54.035Z,32.17
2023-02-09T17:03:59.622Z,32.46
2023-02-09T17:06:05.064Z,32.33
2023-02-09T17:08:17.837Z,32.47
2023-02-09T17:10:24.619Z,32.49
2023-02-09T17:12:30.096Z,32.73
2023-02-09T17:14:34.922Z,32.85
2023-02-09T17:16:44.864Z,32.92
2023-02-09T17:18:51.958Z,32.93
2023-02-09T17:20:59.134Z,32.88
2023-02-09T17:23:03.844Z,32.76
2023-02-09T17:25:09.892Z,33.17
2023-02-09T17:27:14.635Z,33.03
2023-02-09T17:29:21.407Z,33.15
2023-02-09T17:31:28.534Z,33.12
2023-02-09T17:33:38.087Z,33.29
2023-02-09T17:36:10.493Z,33.31
2023-02-09T17:38:07.757Z,33.51
2023-02-09T17:40:16.589Z,33.46
2023-02-09T17:42:25.408Z,33.52
2023-02-09T17:44:45.114Z,33.59
2023-02-09T17:46:51.538Z,33.93
2023-02-09T17:48:58.848Z,33.98
2023-02-09T17:51:06.956Z,33.84
2023-02-09T17:53:17.568Z,34.11
2023-02-09T17:55:25.590Z,33.89
2023-02-09T17:57:30.261Z,34.26
2023-02-09T17:59:35.095Z,34.08
2023-02-09T18:01:44.516Z,34.39
2023-02-09T18:03:49.250Z,34.34
2023-02-09T18:06:01.669Z,34.40
2023-02-09T18:08:06.860Z,34.20
2023-02-09T18:10:11.942Z,34.24
2023-02-09T18:12:21.548Z,34.34
2023-02-09T18:14:27.757Z,34.50
2023-02-09T18:16:32.409Z,34.27
2023-02-09T18:18:37.360Z,34.31
2023-02-09T18:20:42.562Z,34.50
2023-02-09T18:22:49.825Z,34.31
2023-02-09T18:25:00.096Z,34.09
2023-02-09T18:27:05.593Z,34.39
2023-02-09T18:29:10.682Z,34.50
2023-02-09T18:31:19.407Z,34.25
2023-02-09T18:33:24.176Z,34.41
2023-02-09T18:35:33.776Z,34.16
2023-02-09T18:37:38.461Z,34.48
2023-02-09T18:39:46.846Z,34.17
2023-02-09T18:41:54.852Z,34.36
2023-02-09T18:44:00.128Z,34.28
2023-02-09T18:46:06.053Z,34.30
2023-02-09T18:48:10.802Z,34.31
2023-02-09T18:50:19.149Z,34.48
2023-02-09T18:52:25.381Z,34.57
2023-02-09T18:54:33.675Z,34.49
2023-02-09T18:56:41.755Z,34.70
2023-02-09T18:58:46.675Z,34.34
2023-02-09T19:00:51.397Z,34.31
2023-02-09T19:02:58.125Z,34.49
2023-02-09T19:05:04.523Z,34.64
2023-02-09T19:07:14.297Z,34.67
2023-02-09T19:09:19.260Z,34.58
2023-02-09T19:11:25.653Z,34.47
2023-02-09T19:13:33.941Z,34.85
2023-02-09T19:15:39.438Z,34.58
2023-02-09T19:17:44.548Z,34.61
2023-02-09T19:19:50.174Z,34.88
2023-02-09T19:21:56.874Z,34.88
2023-02-09T19:24:02.668Z,34.76
2023-02-09T19:26:08.626Z,35.08
2023-02-09T19:28:13.321Z,35.06
2023-02-09T19:30:25.091Z,34.99
2023-02-09T19:32:30.252Z,34.84
2023-02-09T19:34:37.087Z,34.87
2023-02-09T19:36:41.917Z,34.91
2023-02-09T19:38:46.993Z,34.95
2023-02-09T19:41:05.104Z,35.31
2023-02-09T19:43:14.356Z,35.34
2023-02-09T19:45:21.933Z,35.16
2023-02-09T19:47:28.446Z,35.13
2023-02-09T19:49:34.358Z,35.45
2023-02-09T19:51:39.704Z,35.28
2023-02-09T19:53:44.345Z,35.22
2023-02-09T19:55:50.849Z,35.47
2023-02-09T19:57:55.689Z,35.55
2023-02-09T20:00:00.448Z,35.49
2023-02-09T20:02:07.844Z,35.49
2023-02-09T20:04:12.611Z,35.47
2023-02-09T20:06:17.436Z,35.34
2023-02-09T20:08:23.184Z,35.72
2023-02-09T20:10:27.996Z,35.31
2023-02-09T20:12:32.732Z,35.49
2023-02-09T20:14:38.195Z,35.52
2023-02-09T20:16:43.113Z,35.46
2023-02-09T20:18:50.896Z,35.73
2023-02-09T20:20:55.624Z,35.61
2023-02-09T20:23:00.337Z,35.58
2023-02-09T20:25:05.133Z,35.63
2023-02-09T20:27:09.863Z,35.75
2023-02-09T20:29:16.850Z,35.73
2023-02-09T20:31:22.878Z,35.70
2023-02-09T20:33:27.744Z,35.61
2023-02-09T20:35:35.159Z,35.71
2023-02-09T20:37:40.014Z,35.88
2023-02-09T20:39:44.695Z,35.69
2023-02-09T20:42:03.046Z,35.96
2023-02-09T20:44:20.179Z,35.92
2023-02-09T20:46:39.458Z,35.76
2023-02-09T20:48:44.169Z,35.92
2023-02-09T20:50:51.815Z,35.79
2023-02-09T20:52:56.759Z,35.96
2023-02-09T20:55:01.470Z,36.00
2023-02-09T20:57:06.972Z,35.83
2023-02-09T20:59:12.406Z,35.80
2023-02-09T21:01:17.742Z,36.07
2023-02-09T21:03:22.490Z,36.06
2023-02-09T21:05:27.184Z,35.91
2023-02-09T21:07:35.067Z,36.02
2023-02-09T21:09:40.819Z,35.99
2023-02-09T21:11:45.786Z,35.96
2023-02-09T21:13:50.497Z,35.86
2023-02-09T21:15:55.430Z,36.10
2023-02-09T21:18:00.116Z,35.95
2023-02-09T21:20:06.086Z,35.68
2023-02-09T21:22:10.992Z,35.95
2023-02-09T21:24:18.468Z,35.91
2023-02-09T21:26:25.087Z,36.05
2023-02-09T21:28:29.858Z,36.17
2023-02-09T21:30:34.759Z,36.16
2023-02-09T21:32:40.308Z,35.93
2023-02-09T21:34:45.846Z,36.04
2023-02-09T21:36:50.640Z,36.08
2023-02-09T21:38:55.392Z,36.22
2023-02-09T21:41:02.903Z,35.95
2023-02-09T21:43:07.896Z,35.94
2023-02-09T21:45:12.791Z,36.11
2023-02-09T21:47:17.848Z,36.20
2023-02-09T21:49:22.932Z,36.32
2023-02-09T21:51:27.936Z,36.24
2023-02-09T21:53:32.664Z,36.04
2023-02-09T21:55:37.557Z,36.11
2023-02-09T21:57:45.314Z,36.44
2023-02-09T21:59:49.970Z,36.42
2023-02-09T22:01:54.756Z,36.27
2023-02-09T22:03:59.700Z,36.60
2023-02-09T22:06:05.145Z,36.45
2023-02-09T22:08:09.829Z,36.32
2023-02-09T22:10:14.778Z,36.41
2023-02-09T22:12:19.434Z,36.65
2023-02-09T22:14:26.863Z,36.72
2023-02-09T22:16:32.245Z,36.80
2023-02-09T22:18:37.401Z,36.87
2023-02-09T22:20:43.335Z,37.13
2023-02-09T22:22:49.528Z,37.11
2023-02-09T22:24:54.238Z,37.17
2023-02-09T22:26:58.916Z,37.15
2023-02-09T22:29:03.897Z,37.21
2023-02-09T22:31:13.604Z,37.30
2023-02-09T22:33:18.994Z,37.41
2023-02-09T22:35:23.941Z,37.25
2023-02-09T22:37:28.618Z,37.37
2023-02-09T22:39:33.848Z,37.27
2023-02-09T22:41:38.832Z,37.19
2023-02-09T22:43:43.572Z,37.27
2023-02-09T22:45:48.666Z,37.01
2023-02-09T22:47:56.275Z,37.12
2023-02-09T22:50:01.656Z,37.38
2023-02-09T22:52:06.460Z,37.30
2023-02-09T22:54:11.292Z,37.28
2023-02-09T22:56:16.168Z,37.33
2023-02-09T22:58:20.802Z,37.24
2023-02-09T23:00:25.505Z,37.49
2023-02-09T23:02:30.209Z,37.45
2023-02-09T23:04:37.705Z,37.64
2023-02-09T23:06:42.534Z,37.82
2023-02-09T23:08:48.193Z,37.62
2023-02-09T23:10:53.144Z,37.90
2023-02-09T23:12:57.827Z,38.01
2023-02-09T23:15:02.543Z,37.96
2023-02-09T23:17:07.387Z,38.07
2023-02-09T23:19:15.365Z,38.10
2023-02-09T23:21:24.136Z,38.22
2023-02-09T23:23:29.101Z,38.32
2023-02-09T23:25:33.933Z,38.47
2023-02-09T23:27:38.805Z,38.52
2023-02-09T23:29:43.606Z,38.36
2023-02-09T23:31:49.834Z,38.17
2023-02-09T23:33:54.806Z,38.32
2023-02-09T23:35:59.469Z,38.30
2023-02-09T23:38:06.745Z,38.29
2023-02-09T23:40:12.945Z,38.39
2023-02-09T23:42:17.601Z,38.34
2023-02-09T23:44:22.368Z,38.63
2023-02-09T23:46:29.699Z,38.60
2023-02-09T23:48:35.115Z,38.64
2023-02-09T23:50:40.061Z,38.86
2023-02-09T23:52:44.712Z,38.70
2023-02-09T23:54:52.077Z,38.65
2023-02-09T23:56:57.044Z,38.61
2023-02-09T23:59:01.721Z,38.55
